createdAt,value
2018-11-05T00:00:40.655Z,22.57
2018-11-05T00:03:09.454Z,21.70
2018-11-05T00:05:38.428Z,22.27
2018-11-05T00:08:06.870Z,22.47
2018-11-05T00:10:35.370Z,21.20
2018-11-05T00:13:03.774Z,20.50
2018-11-05T00:15:31.544Z,22.60
2018-11-05T00:18:00.622Z,20.10
2018-11-05T00:20:28.969Z,20.67
2018-11-05T00:22:57.338Z,20.53
2018-11-05T00:25:25.664Z,23.23
2018-11-05T00:27:54.039Z,22.27
2018-11-05T00:30:22.419Z,19.87
2018-11-05T00:32:50.747Z,19.27
2018-11-05T00:35:19.067Z,21.33
2018-11-05T00:37:47.560Z,20.27
2018-11-05T00:40:16.047Z,17.67
2018-11-05T00:42:44.393Z,19.27
2018-11-05T00:45:12.799Z,18.77
2018-11-05T00:47:41.089Z,18.73
2018-11-05T00:50:09.412Z,20.47
2018-11-05T00:52:37.745Z,17.80
2018-11-05T00:55:06.654Z,16.63
2018-11-05T00:57:34.396Z,18.77
2018-11-05T01:00:02.727Z,20.13
2018-11-05T01:02:31.631Z,17.00
2018-11-05T01:04:59.951Z,18.47
2018-11-05T01:07:27.694Z,18.43
2018-11-05T01:09:56.048Z,20.33
2018-11-05T01:12:24.943Z,18.70
2018-11-05T01:14:52.686Z,19.37
2018-11-05T01:17:21.604Z,19.60
2018-11-05T01:19:49.916Z,20.20
2018-11-05T01:22:18.240Z,22.27
2018-11-05T01:24:45.989Z,22.30
2018-11-05T01:27:14.886Z,22.23
2018-11-05T01:29:43.227Z,20.73
2018-11-05T01:32:11.563Z,20.77
2018-11-05T01:34:39.889Z,22.73
2018-11-05T01:37:07.654Z,23.57
2018-11-05T01:39:35.956Z,23.17
2018-11-05T01:42:04.854Z,20.30
2018-11-05T01:44:33.175Z,22.97
2018-11-05T01:47:01.515Z,24.27
2018-11-05T01:49:29.833Z,24.40
2018-11-05T01:51:57.577Z,26.83
2018-11-05T01:54:25.918Z,29.97
2018-11-05T01:56:54.228Z,25.67
2018-11-05T01:59:23.127Z,25.63
2018-11-05T02:01:51.444Z,23.83
2018-11-05T02:04:19.769Z,26.23
2018-11-05T02:06:47.889Z,24.70
2018-11-05T02:09:15.834Z,29.17
2018-11-05T02:11:44.765Z,27.90
2018-11-05T02:14:12.526Z,27.37
2018-11-05T02:16:40.895Z,23.67
2018-11-05T02:19:09.177Z,26.53
2018-11-05T02:21:38.080Z,25.67
2018-11-05T02:24:05.839Z,26.43
2018-11-05T02:26:34.745Z,28.50
2018-11-05T02:29:03.069Z,24.63
2018-11-05T02:31:30.819Z,27.40
2018-11-05T02:33:59.723Z,27.23
2018-11-05T02:36:27.472Z,32.10
2018-11-05T02:38:55.793Z,27.97
2018-11-05T02:41:24.706Z,27.93
2018-11-05T02:43:53.020Z,26.53
2018-11-05T02:46:21.354Z,26.47
2018-11-05T02:48:49.090Z,31.27
2018-11-05T02:51:17.413Z,30.07
2018-11-05T02:53:45.738Z,29.73
2018-11-05T02:56:14.065Z,31.47
2018-11-05T02:58:42.395Z,30.37
2018-11-05T03:01:11.301Z,29.73
2018-11-05T03:03:39.040Z,31.63
2018-11-05T03:06:07.945Z,29.77
2018-11-05T03:08:36.270Z,29.00
2018-11-05T03:11:04.008Z,32.27
2018-11-05T03:13:32.364Z,31.90
2018-11-05T03:16:00.686Z,34.00
2018-11-05T03:18:29.007Z,32.20
2018-11-05T03:20:57.922Z,34.10
2018-11-05T03:23:25.669Z,31.43
2018-11-05T03:25:54.570Z,33.17
2018-11-05T03:28:22.909Z,33.20
2018-11-05T03:30:51.232Z,32.93
2018-11-05T03:33:19.568Z,32.47
2018-11-05T03:35:47.975Z,34.87
2018-11-05T03:38:16.220Z,33.10
2018-11-05T03:40:44.539Z,32.37
2018-11-05T03:43:12.299Z,31.73
2018-11-05T03:45:41.204Z,33.73
2018-11-05T03:48:09.523Z,33.40
2018-11-05T03:50:37.856Z,32.30
2018-11-05T03:53:06.188Z,36.63
2018-11-05T03:55:34.552Z,37.07
2018-11-05T03:58:02.248Z,36.20
2018-11-05T04:00:31.161Z,34.27
2018-11-05T04:02:58.914Z,32.20
2018-11-05T04:05:27.839Z,33.37
2018-11-05T04:07:56.134Z,34.07
2018-11-05T04:10:24.469Z,33.93
2018-11-05T04:12:52.204Z,34.40
2018-11-05T04:15:20.609Z,39.57
2018-11-05T04:17:49.467Z,36.67
2018-11-05T04:20:17.212Z,35.73
2018-11-05T04:22:46.131Z,36.13
2018-11-05T04:25:14.447Z,36.83
2018-11-05T04:27:43.041Z,39.60
2018-11-05T04:30:10.517Z,36.10
2018-11-05T04:32:38.837Z,37.30
2018-11-05T04:35:07.740Z,34.27
2018-11-05T04:37:36.069Z,36.50
2018-11-05T04:40:03.813Z,38.97
2018-11-05T04:42:32.718Z,34.93
2018-11-05T04:45:00.459Z,38.00
2018-11-05T04:47:28.776Z,41.33
2018-11-05T04:49:57.104Z,39.43
2018-11-05T04:52:26.453Z,40.77
2018-11-05T04:54:54.496Z,87.93
2018-11-05T04:57:23.094Z,59.80
2018-11-05T04:59:51.423Z,38.17
2018-11-05T05:02:19.164Z,37.10
2018-11-05T05:04:47.494Z,37.77
2018-11-05T05:07:16.404Z,34.87
2018-11-05T05:09:44.729Z,36.97
2018-11-05T05:12:12.471Z,37.47
2018-11-05T05:14:40.791Z,39.23
2018-11-05T05:17:09.762Z,38.47
2018-11-05T05:19:37.503Z,42.63
2018-11-05T05:22:05.895Z,154.43
2018-11-05T05:24:34.174Z,51.27
2018-11-05T05:27:02.502Z,49.33
2018-11-05T05:29:31.410Z,34.67
2018-11-05T05:31:59.730Z,35.97
2018-11-05T05:34:27.472Z,38.53
2018-11-05T05:36:55.802Z,36.47
2018-11-05T05:39:24.704Z,40.10
2018-11-05T05:41:52.458Z,40.93
2018-11-05T05:44:21.360Z,40.63
2018-11-05T05:46:49.704Z,39.27
2018-11-05T05:49:17.458Z,42.23
2018-11-05T05:51:46.377Z,49.80
2018-11-05T05:54:14.108Z,42.23
2018-11-05T05:56:42.456Z,40.20
2018-11-05T05:59:10.796Z,38.37
2018-11-05T06:01:39.126Z,35.93
2018-11-05T06:04:07.449Z,36.03
2018-11-05T06:06:36.436Z,36.37
2018-11-05T06:09:04.105Z,38.90
2018-11-05T06:11:33.306Z,41.90
2018-11-05T06:14:01.049Z,38.87
2018-11-05T06:16:29.386Z,35.63
2018-11-05T06:18:58.332Z,32.43
2018-11-05T06:21:26.656Z,37.00
2018-11-05T06:23:54.994Z,38.87
2018-11-05T06:26:22.757Z,38.37
2018-11-05T06:28:51.097Z,39.80
2018-11-05T06:31:20.017Z,40.23
2018-11-05T06:33:47.772Z,36.37
2018-11-05T06:36:16.702Z,34.00
2018-11-05T06:38:44.454Z,32.37
2018-11-05T06:43:41.131Z,31.43
2018-11-05T06:46:09.507Z,34.63
2018-11-05T06:48:38.427Z,35.87
2018-11-05T06:51:06.706Z,37.47
2018-11-05T06:53:35.029Z,48.27
2018-11-05T06:56:02.779Z,56.03
2018-11-05T06:58:31.692Z,43.60
2018-11-05T07:01:00.020Z,38.93
2018-11-05T07:03:27.778Z,33.03
2018-11-05T07:05:56.789Z,32.73
2018-11-05T07:08:25.043Z,30.63
2018-11-05T07:10:53.358Z,28.00
2018-11-05T07:13:21.690Z,28.40
2018-11-05T07:15:49.438Z,27.43
2018-11-05T07:18:18.426Z,32.97
2018-11-05T07:20:46.174Z,30.00
2018-11-05T07:23:15.086Z,30.20
2018-11-05T07:25:42.829Z,29.43
2018-11-05T07:28:11.172Z,36.73
2018-11-05T07:30:40.103Z,35.33
2018-11-05T07:33:08.435Z,40.17
2018-11-05T07:35:36.595Z,27.87
2018-11-05T07:38:04.529Z,29.77
2018-11-05T07:40:33.429Z,27.63
2018-11-05T07:43:01.178Z,30.47
2018-11-05T07:45:29.539Z,28.47
2018-11-05T07:47:58.451Z,27.93
2018-11-05T07:50:26.879Z,29.83
2018-11-05T07:52:55.139Z,30.73
2018-11-05T07:55:23.468Z,27.27
2018-11-05T07:57:52.015Z,28.43
2018-11-05T08:00:20.128Z,27.00
2018-11-05T08:02:47.922Z,29.50
2018-11-05T08:05:16.794Z,30.60
2018-11-05T08:07:44.543Z,29.67
2018-11-05T08:10:12.869Z,31.17
2018-11-05T08:12:41.191Z,29.27
2018-11-05T08:15:09.966Z,29.20
2018-11-05T08:17:38.302Z,31.07
2018-11-05T08:20:07.215Z,33.83
2018-11-05T08:22:36.043Z,52.30
2018-11-05T08:25:04.371Z,33.43
2018-11-05T08:27:32.736Z,32.33
2018-11-05T08:30:01.076Z,23.80
2018-11-05T08:32:29.406Z,26.80
2018-11-05T08:34:57.172Z,31.10
2018-11-05T08:37:26.077Z,25.80
2018-11-05T08:39:54.402Z,26.23
2018-11-05T08:42:22.150Z,26.57
2018-11-05T08:44:51.056Z,29.40
2018-11-05T08:47:19.388Z,26.43
2018-11-05T08:49:47.137Z,31.13
2018-11-05T08:52:16.088Z,28.10
2018-11-05T08:54:44.416Z,27.93
2018-11-05T08:57:12.163Z,25.63
2018-11-05T08:59:41.074Z,27.80
2018-11-05T09:02:09.412Z,25.93
2018-11-05T09:04:37.787Z,26.83
2018-11-05T09:07:06.076Z,65.97
2018-11-05T09:09:33.832Z,34.60
2018-11-05T09:12:02.813Z,32.97
2018-11-05T09:14:30.504Z,25.20
2018-11-05T09:16:59.409Z,23.13
2018-11-05T09:19:27.741Z,24.63
2018-11-05T09:21:55.484Z,25.00
2018-11-05T09:24:25.090Z,26.20
2018-11-05T09:26:52.756Z,26.73
2018-11-05T09:29:21.075Z,25.33
2018-11-05T09:31:48.828Z,25.10
2018-11-05T09:34:17.738Z,28.23
2018-11-05T09:36:45.488Z,27.40
2018-11-05T09:39:13.821Z,27.37
2018-11-05T09:41:42.143Z,29.77
2018-11-05T09:44:10.472Z,29.63
2018-11-05T09:46:38.803Z,28.50
2018-11-05T09:49:07.706Z,27.07
2018-11-05T09:51:36.040Z,29.77
2018-11-05T09:54:04.416Z,30.30
2018-11-05T09:56:32.828Z,24.47
2018-11-05T09:59:01.120Z,28.83
2018-11-05T10:01:28.867Z,27.23
2018-11-05T10:03:57.807Z,30.53
2018-11-05T10:06:25.535Z,27.83
2018-11-05T10:08:53.891Z,29.67
2018-11-05T10:11:22.212Z,29.03
2018-11-05T10:13:51.123Z,28.10
2018-11-05T10:16:19.452Z,27.37
2018-11-05T10:18:47.200Z,26.80
2018-11-05T10:21:15.529Z,24.77
2018-11-05T10:23:44.500Z,27.63
2018-11-05T10:26:12.943Z,27.30
2018-11-05T10:28:41.411Z,23.47
2018-11-05T10:31:09.774Z,30.67
2018-11-05T10:33:37.324Z,31.93
2018-11-05T10:36:06.339Z,26.73
2018-11-05T10:38:34.731Z,29.67
2018-11-05T10:41:03.225Z,26.40
2018-11-05T10:43:31.575Z,31.57
2018-11-05T10:46:00.017Z,28.43
2018-11-05T10:48:27.651Z,27.80
2018-11-05T10:50:55.983Z,27.93
2018-11-05T10:53:24.308Z,28.70
2018-11-05T10:55:53.215Z,27.17
2018-11-05T10:58:21.556Z,27.10
2018-11-05T11:00:49.873Z,27.80
2018-11-05T11:03:18.195Z,28.43
2018-11-05T11:05:45.950Z,30.50
2018-11-05T11:08:14.277Z,30.33
2018-11-05T11:10:42.654Z,28.23
2018-11-05T11:13:11.512Z,28.67
2018-11-05T11:15:39.259Z,27.30
2018-11-05T11:18:08.172Z,29.93
2018-11-05T11:20:35.913Z,27.57
2018-11-05T11:23:04.831Z,29.40
2018-11-05T11:25:33.160Z,30.37
2018-11-05T11:28:01.629Z,28.90
2018-11-05T11:30:29.262Z,32.50
2018-11-05T11:32:57.590Z,30.43
2018-11-05T11:35:25.917Z,31.03
2018-11-05T11:37:54.738Z,30.87
2018-11-05T11:40:22.568Z,29.77
2018-11-05T11:42:51.484Z,27.40
2018-11-05T11:45:19.228Z,29.83
2018-11-05T11:47:47.558Z,32.90
2018-11-05T11:50:15.890Z,35.03
2018-11-05T11:52:44.265Z,29.63
2018-11-05T11:55:12.545Z,28.00
2018-11-05T11:57:40.917Z,32.83
2018-11-05T12:00:09.215Z,29.77
2018-11-05T12:02:37.548Z,29.77
2018-11-05T12:05:06.027Z,33.20
2018-11-05T12:07:34.766Z,31.63
2018-11-05T12:10:02.512Z,27.57
2018-11-05T12:12:30.837Z,31.00
2018-11-05T12:14:59.317Z,29.97
2018-11-05T12:17:27.491Z,30.07
2018-11-05T12:19:56.049Z,36.80
2018-11-05T12:22:24.162Z,28.20
2018-11-05T12:24:53.082Z,36.23
2018-11-05T12:27:20.815Z,30.07
2018-11-05T12:29:49.229Z,28.40
2018-11-05T12:32:17.518Z,29.43
2018-11-05T12:34:45.829Z,28.13
2018-11-05T12:37:14.747Z,30.80
2018-11-05T12:39:42.480Z,25.47
2018-11-05T12:42:10.805Z,25.47
2018-11-05T12:44:39.535Z,28.83
2018-11-05T12:47:08.421Z,29.50
2018-11-05T12:49:36.750Z,26.93
2018-11-05T12:52:05.080Z,27.43
2018-11-05T12:54:32.829Z,30.63
2018-11-05T12:57:01.153Z,30.93
2018-11-05T12:59:29.499Z,30.57
2018-11-05T13:01:58.407Z,31.20
2018-11-05T13:04:26.154Z,29.20
2018-11-05T13:06:54.487Z,27.70
2018-11-05T13:09:22.811Z,31.80
2018-11-05T13:11:51.138Z,27.90
2018-11-05T13:14:20.057Z,29.70
2018-11-05T13:16:48.379Z,29.20
2018-11-05T13:19:16.123Z,31.07
2018-11-05T13:21:44.455Z,30.20
2018-11-05T13:24:13.360Z,31.90
2018-11-05T13:26:41.679Z,33.47
2018-11-05T13:29:09.471Z,28.83
2018-11-05T13:31:38.383Z,31.23
2018-11-05T13:34:06.702Z,29.10
2018-11-05T13:36:35.155Z,30.97
2018-11-05T13:39:03.350Z,31.63
2018-11-05T13:41:31.682Z,29.87
2018-11-05T13:44:01.037Z,31.10
2018-11-05T13:46:28.851Z,28.60
2018-11-05T13:48:57.621Z,38.93
2018-11-05T13:51:25.314Z,40.53
2018-11-05T13:53:53.080Z,55.10
2018-11-05T13:56:21.405Z,30.30
2018-11-05T13:58:50.318Z,48.60
2018-11-05T14:01:18.647Z,33.40
2018-11-05T14:03:46.972Z,28.33
2018-11-05T14:06:14.720Z,32.33
2018-11-05T14:08:43.097Z,34.53
2018-11-05T14:11:11.376Z,38.20
2018-11-05T14:13:40.292Z,37.93
2018-11-05T14:16:08.619Z,36.17
2018-11-05T14:18:36.947Z,38.93
2018-11-05T14:21:05.280Z,42.90
2018-11-05T14:23:33.641Z,37.37
2018-11-05T14:26:02.074Z,40.57
2018-11-05T14:28:29.980Z,35.87
2018-11-05T14:30:58.631Z,35.83
2018-11-05T14:33:26.991Z,33.30
2018-11-05T14:35:55.299Z,98.03
2018-11-05T14:38:23.565Z,50.33
2018-11-05T14:40:51.920Z,45.37
2018-11-05T14:43:20.922Z,40.23
2018-11-05T14:45:48.632Z,43.03
2018-11-05T14:48:17.006Z,46.00
2018-11-05T14:50:45.402Z,42.73
2018-11-05T14:53:14.197Z,42.23
2018-11-05T14:55:42.544Z,38.57
2018-11-05T14:58:10.299Z,38.90
2018-11-05T15:00:38.634Z,38.90
2018-11-05T15:03:07.625Z,38.53
2018-11-05T15:05:35.297Z,41.10
2018-11-05T15:08:04.215Z,46.17
2018-11-05T15:10:32.548Z,46.30
2018-11-05T15:13:00.925Z,45.70
2018-11-05T15:15:29.297Z,47.00
2018-11-05T15:17:57.626Z,51.77
2018-11-05T15:20:26.026Z,47.10
2018-11-05T15:22:54.284Z,44.47
2018-11-05T15:25:22.642Z,44.00
2018-11-05T15:27:50.387Z,52.60
2018-11-05T15:30:19.402Z,46.37
2018-11-05T15:38:46.004Z,51.63
2018-11-05T15:41:13.748Z,56.73
2018-11-05T15:43:42.652Z,53.37
2018-11-05T15:46:10.397Z,59.37
2018-11-05T15:48:38.725Z,52.03
2018-11-05T15:51:07.768Z,51.53
2018-11-05T15:53:36.441Z,44.50
2018-11-05T15:56:04.327Z,106.60
2018-11-05T15:58:32.084Z,51.77
2018-11-05T16:01:01.004Z,49.47
2018-11-05T16:03:28.836Z,45.37
2018-11-05T16:05:57.695Z,45.67
2018-11-05T16:08:26.026Z,44.33
2018-11-05T16:10:54.882Z,49.00
2018-11-05T16:13:22.637Z,51.90
2018-11-05T16:15:51.563Z,51.03
2018-11-05T16:18:19.902Z,45.83
2018-11-05T16:20:48.232Z,48.70
2018-11-05T16:23:15.991Z,52.63
2018-11-05T16:25:44.946Z,47.10
2018-11-05T16:28:12.659Z,46.07
2018-11-05T16:30:41.754Z,50.53
2018-11-05T16:33:09.998Z,54.87
2018-11-05T16:35:38.415Z,53.07
2018-11-05T16:38:06.079Z,54.03
2018-11-05T16:40:35.150Z,50.30
2018-11-05T16:43:03.489Z,49.23
2018-11-05T16:45:31.259Z,51.87
2018-11-05T16:48:00.207Z,56.47
2018-11-05T16:50:28.619Z,57.30
2018-11-05T16:52:56.948Z,49.77
2018-11-05T16:55:25.300Z,49.07
2018-11-05T16:57:53.643Z,51.23
2018-11-05T17:00:21.953Z,71.30
2018-11-05T17:02:50.510Z,49.37
2018-11-05T17:05:18.600Z,51.60
2018-11-05T17:07:46.931Z,54.67
2018-11-05T17:10:15.337Z,45.50
2018-11-05T17:12:43.061Z,54.37
2018-11-05T17:15:11.397Z,47.83
2018-11-05T17:17:39.737Z,48.13
2018-11-05T17:20:08.692Z,48.87
2018-11-05T17:22:37.018Z,50.93
2018-11-05T17:25:04.754Z,49.17
2018-11-05T17:27:33.764Z,50.20
2018-11-05T17:30:02.122Z,48.53
2018-11-05T17:32:29.875Z,51.73
2018-11-05T17:34:59.033Z,50.20
2018-11-05T17:37:27.133Z,49.23
2018-11-05T17:39:55.568Z,57.97
2018-11-05T17:42:23.953Z,62.73
2018-11-05T17:44:51.693Z,80.60
2018-11-05T17:47:20.673Z,52.50
2018-11-05T17:49:49.046Z,54.63
2018-11-05T17:52:16.760Z,55.60
2018-11-05T17:54:45.692Z,55.03
2018-11-05T17:57:14.064Z,53.10
2018-11-05T17:59:42.394Z,56.93
2018-11-05T18:02:10.729Z,55.90
2018-11-05T18:04:38.474Z,60.53
2018-11-05T18:07:07.463Z,56.00
2018-11-05T18:09:35.814Z,55.53
2018-11-05T18:12:04.144Z,60.90
2018-11-05T18:14:31.888Z,61.67
2018-11-05T18:17:00.830Z,62.23
2018-11-05T18:19:29.194Z,58.80
2018-11-05T18:21:57.572Z,72.57
2018-11-05T18:24:26.116Z,91.43
2018-11-05T18:26:53.797Z,60.93
2018-11-05T18:29:22.125Z,64.03
2018-11-05T18:31:51.037Z,64.73
2018-11-05T18:34:19.368Z,63.80
2018-11-05T18:36:47.221Z,67.70
2018-11-05T18:39:16.201Z,69.87
2018-11-05T18:41:44.547Z,68.90
2018-11-05T18:44:12.382Z,64.77
2018-11-05T18:46:40.696Z,72.40
2018-11-05T18:49:09.641Z,91.93
2018-11-05T18:51:37.431Z,97.70
2018-11-05T18:54:06.315Z,75.13
2018-11-05T18:56:34.129Z,67.40
2018-11-05T18:59:02.977Z,63.03
2018-11-05T19:01:31.351Z,74.30
2018-11-05T19:04:00.374Z,73.10
2018-11-05T19:06:28.816Z,71.50
2018-11-05T19:08:57.653Z,73.50
2018-11-05T19:11:26.791Z,74.10
2018-11-05T19:13:55.685Z,67.00
2018-11-05T19:16:23.818Z,67.73
2018-11-05T19:18:52.165Z,70.60
2018-11-05T19:21:20.545Z,74.93
2018-11-05T19:23:49.500Z,81.17
2018-11-05T19:26:17.605Z,81.00
2018-11-05T19:28:46.352Z,72.63
2018-11-05T19:31:14.821Z,76.80
2018-11-05T19:33:43.443Z,68.20
2018-11-05T19:36:12.263Z,68.97
2018-11-05T19:38:40.549Z,86.53
2018-11-05T19:41:08.294Z,67.83
2018-11-05T19:43:37.209Z,74.60
2018-11-05T19:46:05.588Z,76.10
2018-11-05T19:48:33.325Z,73.13
2018-11-05T19:51:02.260Z,119.33
2018-11-05T19:53:30.637Z,139.60
2018-11-05T19:55:58.420Z,74.53
2018-11-05T19:58:27.285Z,70.70
2018-11-05T20:00:55.081Z,70.10
2018-11-05T20:03:23.961Z,71.10
2018-11-05T20:05:52.316Z,75.33
2018-11-05T20:08:20.630Z,71.20
2018-11-05T20:10:48.368Z,77.00
2018-11-05T20:13:17.290Z,76.17
2018-11-05T20:15:45.677Z,70.63
2018-11-05T20:18:13.388Z,72.53
2018-11-05T20:20:41.716Z,82.40
2018-11-05T20:23:10.621Z,76.63
2018-11-05T20:25:38.990Z,72.33
2018-11-05T20:28:07.350Z,75.20
2018-11-05T20:30:35.674Z,69.57
2018-11-05T20:33:04.301Z,82.07
2018-11-05T20:35:32.438Z,94.37
2018-11-05T20:38:00.830Z,86.53
2018-11-05T20:40:29.230Z,88.00
2018-11-05T20:42:56.895Z,79.00
2018-11-05T20:45:25.810Z,77.07
2018-11-05T20:47:53.586Z,72.03
2018-11-05T20:50:21.924Z,77.37
2018-11-05T20:52:50.260Z,74.27
2018-11-05T20:55:18.589Z,82.43
2018-11-05T20:57:46.968Z,78.40
2018-11-05T21:00:15.832Z,81.30
2018-11-05T21:02:43.590Z,84.23
2018-11-05T21:05:12.316Z,84.93
2018-11-05T21:07:40.828Z,80.30
2018-11-05T21:10:09.151Z,77.70
2018-11-05T21:12:36.904Z,77.70
2018-11-05T21:15:06.184Z,79.93
2018-11-05T21:17:33.596Z,84.47
2018-11-05T21:20:02.506Z,76.77
2018-11-05T21:22:30.400Z,80.60
2018-11-05T21:24:58.585Z,84.43
2018-11-05T21:27:28.299Z,88.40
2018-11-05T21:29:56.629Z,87.93
2018-11-05T21:32:24.958Z,89.17
2018-11-05T21:34:53.339Z,94.80
2018-11-05T21:37:21.640Z,94.83
2018-11-05T21:39:49.975Z,92.93
2018-11-05T21:42:17.718Z,126.73
2018-11-05T21:44:46.671Z,98.03
2018-11-05T21:47:14.398Z,99.87
2018-11-05T21:49:43.966Z,97.60
2018-11-05T21:52:11.664Z,90.07
2018-11-05T21:54:39.412Z,93.27
2018-11-05T21:57:07.782Z,96.53
2018-11-05T21:59:36.701Z,98.67
2018-11-05T22:02:05.091Z,94.60
2018-11-05T22:04:32.829Z,94.77
2018-11-05T22:07:01.745Z,89.63
2018-11-05T22:09:30.066Z,95.73
2018-11-05T22:11:58.411Z,101.73
2018-11-05T22:14:26.334Z,102.33
2018-11-05T22:16:55.328Z,100.00
2018-11-05T22:19:23.076Z,108.20
2018-11-05T22:21:51.439Z,106.57
2018-11-05T22:24:20.450Z,118.37
2018-11-05T22:26:48.791Z,107.60
2018-11-05T22:29:17.133Z,113.87
2018-11-05T22:31:45.464Z,114.47
2018-11-05T22:34:13.218Z,106.87
2018-11-05T22:36:42.137Z,115.23
2018-11-05T22:39:09.883Z,105.90
2018-11-05T22:41:38.219Z,109.10
2018-11-05T22:44:07.846Z,102.27
2018-11-05T22:46:35.478Z,109.93
2018-11-05T22:49:03.235Z,114.67
2018-11-05T22:51:32.165Z,106.83
2018-11-05T22:53:59.907Z,112.87
2018-11-05T22:56:28.242Z,110.23
2018-11-05T22:58:57.179Z,110.03
2018-11-05T23:01:24.917Z,110.07
2018-11-05T23:03:53.253Z,107.67
2018-11-05T23:06:22.182Z,112.03
2018-11-05T23:08:49.925Z,110.10
2018-11-05T23:11:18.840Z,109.30
2018-11-05T23:13:47.177Z,112.43
2018-11-05T23:16:14.933Z,116.83
2018-11-05T23:18:43.848Z,104.40
2018-11-05T23:21:11.904Z,109.00
2018-11-05T23:23:39.967Z,112.97
2018-11-05T23:26:08.275Z,109.30
2018-11-05T23:28:37.190Z,110.87
2018-11-05T23:31:05.530Z,117.13
2018-11-05T23:33:33.935Z,111.50
2018-11-05T23:36:02.193Z,115.20
2018-11-05T23:38:30.368Z,109.93
2018-11-05T23:40:59.352Z,114.27
2018-11-05T23:43:27.614Z,111.80
2018-11-05T23:45:55.369Z,113.40
2018-11-05T23:48:24.292Z,108.33
2018-11-05T23:50:52.057Z,117.13
2018-11-05T23:53:20.425Z,118.60
2018-11-05T23:55:49.351Z,112.47
2018-11-05T23:58:17.678Z,108.37
